sensor_id;sensor_type;location;lat;lon;timestamp;pressure;altitude;pressure_sealevel;temperature;humidity
52249;BME280;38541;48.130;8.378;2023-04-08T00:00:53;92909.78;;;4.70;80.89
52249;BME280;38541;48.130;8.378;2023-04-08T00:03:20;92910.72;;;4.76;81.43
52249;BME280;38541;48.130;8.378;2023-04-08T00:05:47;92922.25;;;4.80;81.47
52249;BME280;38541;48.130;8.378;2023-04-08T00:08:13;92914.44;;;4.80;81.55
52249;BME280;38541;48.130;8.378;2023-04-08T00:10:40;92917.78;;;4.88;81.21
52249;BME280;38541;48.130;8.378;2023-04-08T00:13:06;92908.50;;;4.92;81.25
52249;BME280;38541;48.130;8.378;2023-04-08T00:15:33;92915.28;;;4.93;80.93
52249;BME280;38541;48.130;8.378;2023-04-08T00:17:59;92915.97;;;5.00;80.72
52249;BME280;38541;48.130;8.378;2023-04-08T00:20:26;92906.47;;;5.06;80.79
52249;BME280;38541;48.130;8.378;2023-04-08T00:22:53;92912.72;;;5.05;80.52
52249;BME280;38541;48.130;8.378;2023-04-08T00:25:19;92916.13;;;5.05;80.61
52249;BME280;38541;48.130;8.378;2023-04-08T00:27:48;92910.66;;;5.07;80.75
52249;BME280;38541;48.130;8.378;2023-04-08T00:30:15;92913.06;;;5.08;80.64
52249;BME280;38541;48.130;8.378;2023-04-08T00:32:45;92906.84;;;5.09;80.76
52249;BME280;38541;48.130;8.378;2023-04-08T00:35:12;92906.84;;;5.09;80.79
52249;BME280;38541;48.130;8.378;2023-04-08T00:37:39;92908.63;;;5.09;80.62
52249;BME280;38541;48.130;8.378;2023-04-08T00:40:06;92913.41;;;5.12;80.59
52249;BME280;38541;48.130;8.378;2023-04-08T00:42:33;92902.19;;;5.11;80.47
52249;BME280;38541;48.130;8.378;2023-04-08T00:44:59;92901.06;;;5.07;80.56
52249;BME280;38541;48.130;8.378;2023-04-08T00:47:26;92901.06;;;5.07;80.31
52249;BME280;38541;48.130;8.378;2023-04-08T00:49:52;92904.69;;;5.06;80.41
52249;BME280;38541;48.130;8.378;2023-04-08T00:52:19;92910.66;;;5.07;80.46
52249;BME280;38541;48.130;8.378;2023-04-08T00:54:45;92907.75;;;5.03;80.61
52249;BME280;38541;48.130;8.378;2023-04-08T00:57:12;92912.81;;;4.98;80.79
52249;BME280;38541;48.130;8.378;2023-04-08T00:59:39;92909.19;;;4.99;81.03
52249;BME280;38541;48.130;8.378;2023-04-08T01:02:11;92912.34;;;5.01;80.81
52249;BME280;38541;48.130;8.378;2023-04-08T01:07:24;92909.88;;;5.06;80.53
52249;BME280;38541;48.130;8.378;2023-04-08T01:09:59;92904.69;;;5.06;80.31
52249;BME280;38541;48.130;8.378;2023-04-08T01:12:31;92902.09;;;5.06;80.32
52249;BME280;38541;48.130;8.378;2023-04-08T01:15:06;92911.69;;;5.06;80.33
52249;BME280;38541;48.130;8.378;2023-04-08T01:17:34;92909.88;;;5.06;80.12
52249;BME280;38541;48.130;8.378;2023-04-08T01:20:03;92914.28;;;5.06;80.21
52249;BME280;38541;48.130;8.378;2023-04-08T01:22:42;92907.50;;;5.05;80.30
52249;BME280;38541;48.130;8.378;2023-04-08T01:25:18;92913.28;;;5.07;80.34
52249;BME280;38541;48.130;8.378;2023-04-08T01:27:47;92915.78;;;5.13;80.21
52249;BME280;38541;48.130;8.378;2023-04-08T01:30:18;92905.94;;;5.16;80.15
52249;BME280;38541;48.130;8.378;2023-04-08T01:32:46;92902.88;;;5.19;80.22
52249;BME280;38541;48.130;8.378;2023-04-08T01:35:14;92896.88;;;5.18;79.94
52249;BME280;38541;48.130;8.378;2023-04-08T01:37:42;92906.16;;;5.14;79.86
52249;BME280;38541;48.130;8.378;2023-04-08T01:40:10;92904.00;;;5.11;79.61
52249;BME280;38541;48.130;8.378;2023-04-08T01:42:37;92904.22;;;5.09;80.02
52249;BME280;38541;48.130;8.378;2023-04-08T01:45:05;92909.00;;;5.12;80.18
52249;BME280;38541;48.130;8.378;2023-04-08T01:47:35;92908.41;;;5.10;80.23
52249;BME280;38541;48.130;8.378;2023-04-08T01:50:03;92907.03;;;5.08;80.30
52249;BME280;38541;48.130;8.378;2023-04-08T01:52:34;92901.06;;;5.07;80.30
52249;BME280;38541;48.130;8.378;2023-04-08T01:55:02;92907.84;;;5.08;80.51
52249;BME280;38541;48.130;8.378;2023-04-08T01:57:32;92901.38;;;5.11;80.70
52249;BME280;38541;48.130;8.378;2023-04-08T02:00:02;92898.94;;;5.16;80.63
52249;BME280;38541;48.130;8.378;2023-04-08T02:02:45;92909.56;;;5.14;80.18
52249;BME280;38541;48.130;8.378;2023-04-08T02:05:13;92901.97;;;5.13;80.17
52249;BME280;38541;48.130;8.378;2023-04-08T02:07:40;92903.44;;;5.09;80.33
52249;BME280;38541;48.130;8.378;2023-04-08T02:10:07;92903.53;;;5.02;80.23
52249;BME280;38541;48.130;8.378;2023-04-08T02:12:33;92902.38;;;4.98;80.52
52249;BME280;38541;48.130;8.378;2023-04-08T02:15:01;92903.41;;;4.97;80.38
52249;BME280;38541;48.130;8.378;2023-04-08T02:17:51;92912.13;;;5.03;80.47
52249;BME280;38541;48.130;8.378;2023-04-08T02:20:31;92910.34;;;5.03;80.63
52249;BME280;38541;48.130;8.378;2023-04-08T02:25:37;92911.81;;;5.11;80.78
52249;BME280;38541;48.130;8.378;2023-04-08T02:28:05;92909.44;;;5.09;80.65
52249;BME280;38541;48.130;8.378;2023-04-08T02:30:34;92909.19;;;5.11;80.49
52249;BME280;38541;48.130;8.378;2023-04-08T02:33:03;92909.19;;;5.11;80.42
52249;BME280;38541;48.130;8.378;2023-04-08T02:35:31;92914.41;;;5.11;80.36
52249;BME280;38541;48.130;8.378;2023-04-08T02:37:57;92911.81;;;5.11;80.18
52249;BME280;38541;48.130;8.378;2023-04-08T02:40:31;92917.47;;;5.08;80.13
52249;BME280;38541;48.130;8.378;2023-04-08T02:42:58;92916.13;;;5.05;80.40
52249;BME280;38541;48.130;8.378;2023-04-08T02:45:40;92913.41;;;5.12;80.62
52249;BME280;38541;48.130;8.378;2023-04-08T02:48:08;92918.84;;;5.10;80.34
52249;BME280;38541;48.130;8.378;2023-04-08T02:50:34;92918.28;;;5.08;80.10
52249;BME280;38541;48.130;8.378;2023-04-08T02:53:02;92919.75;;;5.04;79.53
52249;BME280;38541;48.130;8.378;2023-04-08T02:55:31;92920.75;;;5.03;80.00
52249;BME280;38541;48.130;8.378;2023-04-08T02:57:57;92919.28;;;5.07;80.45
52249;BME280;38541;48.130;8.378;2023-04-08T03:00:24;92915.22;;;5.11;80.16
52249;BME280;38541;48.130;8.378;2023-04-08T03:02:50;92910.47;;;5.08;80.18
52249;BME280;38541;48.130;8.378;2023-04-08T03:05:17;92917.91;;;5.05;80.00
52249;BME280;38541;48.130;8.378;2023-04-08T03:07:43;92919.50;;;5.06;80.16
52249;BME280;38541;48.130;8.378;2023-04-08T03:10:11;92914.09;;;5.07;80.27
52249;BME280;38541;48.130;8.378;2023-04-08T03:12:37;92921.91;;;5.07;80.33
52249;BME280;38541;48.130;8.378;2023-04-08T03:15:04;92913.06;;;5.08;80.42
52249;BME280;38541;48.130;8.378;2023-04-08T03:17:31;92908.88;;;5.07;79.95
52249;BME280;38541;48.130;8.378;2023-04-08T03:20:00;92907.84;;;5.08;80.29
52249;BME280;38541;48.130;8.378;2023-04-08T03:22:29;92913.06;;;5.08;80.57
52249;BME280;38541;48.130;8.378;2023-04-08T03:24:56;92909.88;;;5.06;80.59
52249;BME280;38541;48.130;8.378;2023-04-08T03:27:23;92909.31;;;5.04;80.13
52249;BME280;38541;48.130;8.378;2023-04-08T03:29:49;92913.06;;;5.08;80.25
52249;BME280;38541;48.130;8.378;2023-04-08T03:32:16;92912.50;;;5.06;80.08
52249;BME280;38541;48.130;8.378;2023-04-08T03:34:42;92913.28;;;5.07;80.09
52249;BME280;38541;48.130;8.378;2023-04-08T03:37:08;92912.50;;;5.06;79.96
52249;BME280;38541;48.130;8.378;2023-04-08T03:39:35;92917.13;;;5.04;79.73
52249;BME280;38541;48.130;8.378;2023-04-08T03:42:02;92924.34;;;5.02;80.01
52249;BME280;38541;48.130;8.378;2023-04-08T03:44:28;92928.78;;;5.02;80.11
52249;BME280;38541;48.130;8.378;2023-04-08T03:46:55;92918.38;;;5.02;80.07
52249;BME280;38541;48.130;8.378;2023-04-08T03:49:21;92923.22;;;4.98;80.50
52249;BME280;38541;48.130;8.378;2023-04-08T03:51:48;92923.22;;;4.98;80.33
52249;BME280;38541;48.130;8.378;2023-04-08T03:54:15;92927.66;;;4.97;80.64
52249;BME280;38541;48.130;8.378;2023-04-08T03:56:41;92915.84;;;4.95;80.31
52249;BME280;38541;48.130;8.378;2023-04-08T03:59:08;92912.47;;;4.94;80.63
52249;BME280;38541;48.130;8.378;2023-04-08T04:01:34;92915.06;;;4.94;81.10
52249;BME280;38541;48.130;8.378;2023-04-08T04:04:01;92914.28;;;4.94;80.87
52249;BME280;38541;48.130;8.378;2023-04-08T04:06:27;92917.53;;;4.89;81.11
52249;BME280;38541;48.130;8.378;2023-04-08T04:08:54;92916.19;;;4.87;80.81
52249;BME280;38541;48.130;8.378;2023-04-08T04:11:20;92920.59;;;4.86;80.67
52249;BME280;38541;48.130;8.378;2023-04-08T04:13:48;92916.41;;;4.85;80.49
52249;BME280;38541;48.130;8.378;2023-04-08T04:16:14;92922.81;;;4.82;81.14
52249;BME280;38541;48.130;8.378;2023-04-08T04:18:41;92926.03;;;4.84;80.98
52249;BME280;38541;48.130;8.378;2023-04-08T04:21:08;92921.59;;;4.85;80.88
52249;BME280;38541;48.130;8.378;2023-04-08T04:23:34;92924.66;;;4.82;81.08
52249;BME280;38541;48.130;8.378;2023-04-08T04:26:01;92923.84;;;4.81;81.11
52249;BME280;38541;48.130;8.378;2023-04-08T04:28:27;92929.03;;;4.81;80.96
52249;BME280;38541;48.130;8.378;2023-04-08T04:30:54;92931.88;;;4.80;80.95
52249;BME280;38541;48.130;8.378;2023-04-08T04:33:22;92932.66;;;4.80;81.09
52249;BME280;38541;48.130;8.378;2023-04-08T04:35:48;92927.47;;;4.80;81.11
52249;BME280;38541;48.130;8.378;2023-04-08T04:38:15;92925.44;;;4.82;81.09
52249;BME280;38541;48.130;8.378;2023-04-08T04:40:41;92927.63;;;4.85;80.78
52249;BME280;38541;48.130;8.378;2023-04-08T04:43:09;92929.66;;;4.83;80.53
52249;BME280;38541;48.130;8.378;2023-04-08T04:45:36;92931.88;;;4.80;80.81
52249;BME280;38541;48.130;8.378;2023-04-08T04:48:03;92928.03;;;4.82;80.73
52249;BME280;38541;48.130;8.378;2023-04-08T04:50:29;92937.09;;;4.80;80.76
52249;BME280;38541;48.130;8.378;2023-04-08T04:52:56;92938.31;;;4.77;80.24
52249;BME280;38541;48.130;8.378;2023-04-08T04:55:22;92942.50;;;4.78;80.97
52249;BME280;38541;48.130;8.378;2023-04-08T04:57:49;92939.91;;;4.78;80.81
52249;BME280;38541;48.130;8.378;2023-04-08T05:00:15;92936.28;;;4.79;80.95
52249;BME280;38541;48.130;8.378;2023-04-08T05:02:42;92936.84;;;4.81;81.07
52249;BME280;38541;48.130;8.378;2023-04-08T05:05:09;92940.91;;;4.77;81.12
52249;BME280;38541;48.130;8.378;2023-04-08T05:07:37;92942.28;;;4.80;81.09
52249;BME280;38541;48.130;8.378;2023-04-08T05:10:04;92942.66;;;4.83;80.94
52249;BME280;38541;48.130;8.378;2023-04-08T05:12:31;92955.75;;;4.77;80.54
52249;BME280;38541;48.130;8.378;2023-04-08T05:14:58;92961.38;;;4.74;81.05
52249;BME280;38541;48.130;8.378;2023-04-08T05:17:25;92965.09;;;4.66;80.98
52249;BME280;38541;48.130;8.378;2023-04-08T05:19:51;92956.84;;;4.69;81.90
52249;BME280;38541;48.130;8.378;2023-04-08T05:22:18;92959.22;;;4.70;81.56
52249;BME280;38541;48.130;8.378;2023-04-08T05:24:45;92953.50;;;4.80;81.21
52249;BME280;38541;48.130;8.378;2023-04-08T05:27:11;92959.41;;;4.88;80.83
52249;BME280;38541;48.130;8.378;2023-04-08T05:29:38;92956.13;;;4.92;80.68
52249;BME280;38541;48.130;8.378;2023-04-08T05:32:04;92956.13;;;4.92;80.61
52249;BME280;38541;48.130;8.378;2023-04-08T05:34:31;92955.91;;;4.94;80.46
52249;BME280;38541;48.130;8.378;2023-04-08T05:36:57;92948.13;;;4.94;80.50
52249;BME280;38541;48.130;8.378;2023-04-08T05:39:24;92956.03;;;4.99;80.92
52249;BME280;38541;48.130;8.378;2023-04-08T05:41:50;92950.38;;;5.02;80.39
52249;BME280;38541;48.130;8.378;2023-04-08T05:44:17;92955.50;;;5.09;80.38
52249;BME280;38541;48.130;8.378;2023-04-08T05:46:43;92967.88;;;5.13;79.96
52249;BME280;38541;48.130;8.378;2023-04-08T05:49:10;92969.47;;;5.14;79.89
52249;BME280;38541;48.130;8.378;2023-04-08T05:51:38;92962.66;;;5.13;79.64
52249;BME280;38541;48.130;8.378;2023-04-08T05:54:04;92971.41;;;5.19;79.80
52249;BME280;38541;48.130;8.378;2023-04-08T05:56:31;92971.31;;;5.26;79.75
52249;BME280;38541;48.130;8.378;2023-04-08T05:58:57;92967.13;;;5.37;79.22
52249;BME280;38541;48.130;8.378;2023-04-08T06:01:24;92970.66;;;5.42;79.19
52249;BME280;38541;48.130;8.378;2023-04-08T06:03:51;92972.81;;;5.46;78.83
52249;BME280;38541;48.130;8.378;2023-04-08T06:06:17;92967.72;;;5.51;78.82
52249;BME280;38541;48.130;8.378;2023-04-08T06:08:44;92975.31;;;5.52;78.69
52249;BME280;38541;48.130;8.378;2023-04-08T06:11:11;92979.97;;;5.62;78.54
52249;BME280;38541;48.130;8.378;2023-04-08T06:13:37;92976.34;;;5.63;77.82
52249;BME280;38541;48.130;8.378;2023-04-08T06:16:11;92985.66;;;5.71;78.45
52249;BME280;38541;48.130;8.378;2023-04-08T06:18:38;92981.94;;;5.79;78.17
52249;BME280;38541;48.130;8.378;2023-04-08T06:21:05;92981.47;;;5.82;78.08
52249;BME280;38541;48.130;8.378;2023-04-08T06:23:32;92982.38;;;5.88;78.02
52249;BME280;38541;48.130;8.378;2023-04-08T06:25:58;92988.84;;;5.85;77.62
52249;BME280;38541;48.130;8.378;2023-04-08T06:28:24;92988.03;;;5.96;77.92
52249;BME280;38541;48.130;8.378;2023-04-08T06:30:51;92995.00;;;6.03;77.43
52249;BME280;38541;48.130;8.378;2023-04-08T06:33:18;92993.16;;;6.03;77.38
52249;BME280;38541;48.130;8.378;2023-04-08T06:35:44;92987.28;;;6.08;77.63
52249;BME280;38541;48.130;8.378;2023-04-08T06:38:11;92992.03;;;6.23;77.55
52249;BME280;38541;48.130;8.378;2023-04-08T06:40:38;92999.72;;;6.30;77.04
52249;BME280;38541;48.130;8.378;2023-04-08T06:43:05;93007.34;;;6.31;77.06
52249;BME280;38541;48.130;8.378;2023-04-08T06:45:38;93003.59;;;6.39;76.69
52249;BME280;38541;48.130;8.378;2023-04-08T06:48:05;92997.34;;;6.40;76.17
52249;BME280;38541;48.130;8.378;2023-04-08T06:50:34;93001.19;;;6.37;75.85
52249;BME280;38541;48.130;8.378;2023-04-08T06:53:00;93000.41;;;6.37;75.54
52249;BME280;38541;48.130;8.378;2023-04-08T06:55:27;93004.28;;;6.34;75.60
52249;BME280;38541;48.130;8.378;2023-04-08T06:57:53;93008.47;;;6.35;75.93
52249;BME280;38541;48.130;8.378;2023-04-08T07:00:19;93012.88;;;6.35;75.65
52249;BME280;38541;48.130;8.378;2023-04-08T07:02:46;93008.81;;;6.15;75.11
52249;BME280;38541;48.130;8.378;2023-04-08T07:05:13;93004.03;;;6.24;75.50
52249;BME280;38541;48.130;8.378;2023-04-08T07:07:39;93005.06;;;6.35;75.59
52249;BME280;38541;48.130;8.378;2023-04-08T07:10:06;93009.78;;;6.62;75.46
52249;BME280;38541;48.130;8.378;2023-04-08T07:12:36;93010.56;;;6.74;74.49
52249;BME280;38541;48.130;8.378;2023-04-08T07:15:02;93007.78;;;6.81;72.92
52249;BME280;38541;48.130;8.378;2023-04-08T07:17:29;93007.50;;;6.77;72.74
52249;BME280;38541;48.130;8.378;2023-04-08T07:19:55;93004.63;;;6.79;72.32
52249;BME280;38541;48.130;8.378;2023-04-08T07:22:22;93009.53;;;6.75;71.92
52249;BME280;38541;48.130;8.378;2023-04-08T07:24:49;93015.03;;;6.91;72.42
52249;BME280;38541;48.130;8.378;2023-04-08T07:27:15;93010.81;;;7.02;72.39
52249;BME280;38541;48.130;8.378;2023-04-08T07:29:42;93010.78;;;7.13;71.34
52249;BME280;38541;48.130;8.378;2023-04-08T07:32:09;93012.78;;;7.23;71.12
52249;BME280;38541;48.130;8.378;2023-04-08T07:34:35;93013.19;;;7.32;70.68
52249;BME280;38541;48.130;8.378;2023-04-08T07:37:02;93013.19;;;7.32;70.04
52249;BME280;38541;48.130;8.378;2023-04-08T07:39:28;93016.44;;;7.39;69.70
52249;BME280;38541;48.130;8.378;2023-04-08T07:41:55;93010.38;;;7.51;69.70
52249;BME280;38541;48.130;8.378;2023-04-08T07:44:22;93019.94;;;7.45;69.30
52249;BME280;38541;48.130;8.378;2023-04-08T07:46:48;93010.84;;;7.65;69.51
52249;BME280;38541;48.130;8.378;2023-04-08T07:49:17;93015.38;;;7.69;68.86
52249;BME280;38541;48.130;8.378;2023-04-08T07:51:43;93016.38;;;7.51;68.51
52249;BME280;38541;48.130;8.378;2023-04-08T07:54:10;93025.47;;;7.32;67.73
52249;BME280;38541;48.130;8.378;2023-04-08T07:56:42;93020.75;;;7.17;68.33
52249;BME280;38541;48.130;8.378;2023-04-08T07:59:10;93031.69;;;7.13;69.40
52249;BME280;38541;48.130;8.378;2023-04-08T08:01:38;93036.84;;;7.25;70.15
52249;BME280;38541;48.130;8.378;2023-04-08T08:04:04;93036.72;;;7.32;70.22
52249;BME280;38541;48.130;8.378;2023-04-08T08:06:31;93038.78;;;7.30;70.67
52249;BME280;38541;48.130;8.378;2023-04-08T08:08:58;93033.81;;;7.17;70.25
52249;BME280;38541;48.130;8.378;2023-04-08T08:11:25;93035.16;;;7.19;71.17
52249;BME280;38541;48.130;8.378;2023-04-08T08:13:53;93040.16;;;7.21;71.07
52249;BME280;38541;48.130;8.378;2023-04-08T08:16:19;93036.06;;;7.25;71.16
52249;BME280;38541;48.130;8.378;2023-04-08T08:18:46;93042.72;;;7.33;71.26
52249;BME280;38541;48.130;8.378;2023-04-08T08:21:12;93039.41;;;7.37;71.05
52249;BME280;38541;48.130;8.378;2023-04-08T08:23:39;93047.16;;;7.32;70.79
52249;BME280;38541;48.130;8.378;2023-04-08T08:26:08;93044.66;;;7.37;70.38
52249;BME280;38541;48.130;8.378;2023-04-08T08:28:35;93050.69;;;7.55;70.34
52249;BME280;38541;48.130;8.378;2023-04-08T08:31:02;93054.22;;;7.78;70.18
52249;BME280;38541;48.130;8.378;2023-04-08T08:33:28;93050.97;;;7.88;69.71
52249;BME280;38541;48.130;8.378;2023-04-08T08:35:55;93047.31;;;7.89;68.30
52249;BME280;38541;48.130;8.378;2023-04-08T08:38:23;93049.63;;;7.85;69.62
52249;BME280;38541;48.130;8.378;2023-04-08T08:40:54;93051.34;;;7.62;68.49
52249;BME280;38541;48.130;8.378;2023-04-08T08:43:22;93057.88;;;7.48;69.56
52249;BME280;38541;48.130;8.378;2023-04-08T08:45:49;93057.19;;;7.52;69.72
52249;BME280;38541;48.130;8.378;2023-04-08T08:48:16;93061.31;;;7.48;70.08
52249;BME280;38541;48.130;8.378;2023-04-08T08:50:43;93066.59;;;7.53;70.30
52249;BME280;38541;48.130;8.378;2023-04-08T08:53:09;93071.34;;;7.68;70.17
52249;BME280;38541;48.130;8.378;2023-04-08T08:55:36;93071.91;;;7.41;68.51
52249;BME280;38541;48.130;8.378;2023-04-08T08:58:26;93070.16;;;7.47;68.63
52249;BME280;38541;48.130;8.378;2023-04-08T09:00:53;93077.47;;;7.45;69.24
52249;BME280;38541;48.130;8.378;2023-04-08T09:03:27;93072.06;;;7.23;69.80
52249;BME280;38541;48.130;8.378;2023-04-08T09:05:59;93078.53;;;7.32;69.93
52249;BME280;38541;48.130;8.378;2023-04-08T09:08:36;93081.41;;;7.48;69.55
52249;BME280;38541;48.130;8.378;2023-04-08T09:11:17;93076.31;;;7.70;69.18
52249;BME280;38541;48.130;8.378;2023-04-08T09:13:44;93076.50;;;7.97;69.33
52249;BME280;38541;48.130;8.378;2023-04-08T09:16:12;93088.00;;;7.96;67.77
52249;BME280;38541;48.130;8.378;2023-04-08T09:18:40;93085.56;;;8.07;68.70
52249;BME280;38541;48.130;8.378;2023-04-08T09:21:10;93087.69;;;8.10;67.03
52249;BME280;38541;48.130;8.378;2023-04-08T09:23:48;93093.84;;;8.04;67.04
52249;BME280;38541;48.130;8.378;2023-04-08T09:26:22;93096.06;;;7.95;67.79
52249;BME280;38541;48.130;8.378;2023-04-08T09:31:42;93096.81;;;7.90;67.94
52249;BME280;38541;48.130;8.378;2023-04-08T09:34:12;93098.00;;;7.99;67.37
52249;BME280;38541;48.130;8.378;2023-04-08T09:36:39;93093.72;;;8.10;68.29
52249;BME280;38541;48.130;8.378;2023-04-08T09:39:06;93092.53;;;8.18;68.11
52249;BME280;38541;48.130;8.378;2023-04-08T09:41:34;93095.88;;;8.31;66.44
52249;BME280;38541;48.130;8.378;2023-04-08T09:44:06;93091.09;;;8.45;65.13
52249;BME280;38541;48.130;8.378;2023-04-08T09:51:52;93090.75;;;8.75;63.02
52249;BME280;38541;48.130;8.378;2023-04-08T09:54:24;93096.09;;;8.63;63.41
52249;BME280;38541;48.130;8.378;2023-04-08T09:57:04;93095.69;;;8.71;63.48
52249;BME280;38541;48.130;8.378;2023-04-08T09:59:37;93096.25;;;8.56;62.75
52249;BME280;38541;48.130;8.378;2023-04-08T10:02:06;93100.22;;;8.42;63.76
52249;BME280;38541;48.130;8.378;2023-04-08T10:04:38;93095.31;;;8.28;64.50
52249;BME280;38541;48.130;8.378;2023-04-08T10:07:07;93103.47;;;8.15;64.82
52249;BME280;38541;48.130;8.378;2023-04-08T10:09:34;93100.78;;;8.10;65.77
52249;BME280;38541;48.130;8.378;2023-04-08T10:12:02;93103.69;;;7.96;65.17
52249;BME280;38541;48.130;8.378;2023-04-08T10:14:29;93101.69;;;7.69;65.40
52249;BME280;38541;48.130;8.378;2023-04-08T10:17:25;93106.81;;;7.64;64.58
52249;BME280;38541;48.130;8.378;2023-04-08T10:19:53;93107.56;;;7.77;65.62
52249;BME280;38541;48.130;8.378;2023-04-08T10:22:45;93114.28;;;7.73;65.12
52249;BME280;38541;48.130;8.378;2023-04-08T10:27:44;93102.59;;;8.09;65.18
52249;BME280;38541;48.130;8.378;2023-04-08T10:32:53;93102.91;;;8.30;64.88
52249;BME280;38541;48.130;8.378;2023-04-08T10:35:28;93102.91;;;8.30;64.47
52249;BME280;38541;48.130;8.378;2023-04-08T10:37:59;93110.13;;;8.40;64.64
52249;BME280;38541;48.130;8.378;2023-04-08T10:40:26;93098.81;;;8.34;64.39
52249;BME280;38541;48.130;8.378;2023-04-08T10:42:56;93108.78;;;8.37;63.82
52249;BME280;38541;48.130;8.378;2023-04-08T10:45:23;93100.41;;;8.52;63.89
52249;BME280;38541;48.130;8.378;2023-04-08T10:47:50;93102.75;;;8.71;63.63
52249;BME280;38541;48.130;8.378;2023-04-08T10:50:18;93106.63;;;8.68;63.52
52249;BME280;38541;48.130;8.378;2023-04-08T10:52:50;93099.72;;;8.79;64.16
52249;BME280;38541;48.130;8.378;2023-04-08T10:55:24;93099.91;;;8.95;63.55
52249;BME280;38541;48.130;8.378;2023-04-08T10:57:52;93106.13;;;8.89;63.18
52249;BME280;38541;48.130;8.378;2023-04-08T11:00:32;93106.53;;;8.80;62.29
52249;BME280;38541;48.130;8.378;2023-04-08T11:03:00;93105.81;;;8.85;63.41
52249;BME280;38541;48.130;8.378;2023-04-08T11:05:27;93105.03;;;8.84;62.78
52249;BME280;38541;48.130;8.378;2023-04-08T11:07:53;93104.72;;;8.81;62.64
52249;BME280;38541;48.130;8.378;2023-04-08T11:10:21;93106.56;;;9.03;62.76
52249;BME280;38541;48.130;8.378;2023-04-08T11:12:48;93104.13;;;8.96;61.82
52249;BME280;38541;48.130;8.378;2023-04-08T11:15:15;93103.50;;;8.89;63.06
52249;BME280;38541;48.130;8.378;2023-04-08T11:17:42;93096.59;;;9.22;62.47
52249;BME280;38541;48.130;8.378;2023-04-08T11:20:10;93107.34;;;9.48;61.74
52249;BME280;38541;48.130;8.378;2023-04-08T11:22:36;93099.41;;;9.92;61.75
52249;BME280;38541;48.130;8.378;2023-04-08T11:25:06;93093.59;;;10.50;59.30
52249;BME280;38541;48.130;8.378;2023-04-08T11:27:35;93088.94;;;11.16;57.12
52249;BME280;38541;48.130;8.378;2023-04-08T11:30:03;93092.69;;;11.31;57.43
52249;BME280;38541;48.130;8.378;2023-04-08T11:32:31;93091.97;;;11.46;57.18
52249;BME280;38541;48.130;8.378;2023-04-08T11:35:03;93085.72;;;11.78;57.14
52249;BME280;38541;48.130;8.378;2023-04-08T11:37:38;93090.66;;;11.38;55.93
52249;BME280;38541;48.130;8.378;2023-04-08T11:40:09;93085.03;;;11.19;56.60
52249;BME280;38541;48.130;8.378;2023-04-08T11:42:36;93082.31;;;10.98;56.98
52249;BME280;38541;48.130;8.378;2023-04-08T11:45:14;93078.50;;;10.73;57.35
52249;BME280;38541;48.130;8.378;2023-04-08T11:47:42;93081.00;;;10.52;57.63
52249;BME280;38541;48.130;8.378;2023-04-08T11:50:09;93080.41;;;10.45;57.74
52249;BME280;38541;48.130;8.378;2023-04-08T11:52:46;93085.03;;;10.33;57.92
52249;BME280;38541;48.130;8.378;2023-04-08T11:55:27;93084.25;;;9.99;58.31
52249;BME280;38541;48.130;8.378;2023-04-08T11:57:54;93085.22;;;9.93;59.79
52249;BME280;38541;48.130;8.378;2023-04-08T12:00:23;93090.94;;;9.85;58.62
52249;BME280;38541;48.130;8.378;2023-04-08T12:02:50;93082.69;;;9.98;59.17
52249;BME280;38541;48.130;8.378;2023-04-08T12:05:17;93083.69;;;10.25;58.58
52249;BME280;38541;48.130;8.378;2023-04-08T12:07:43;93083.00;;;10.40;58.32
52249;BME280;38541;48.130;8.378;2023-04-08T12:10:11;93087.38;;;10.67;58.75
52249;BME280;38541;48.130;8.378;2023-04-08T12:12:38;93081.97;;;10.84;58.07
52249;BME280;38541;48.130;8.378;2023-04-08T12:15:05;93080.53;;;11.14;57.29
52249;BME280;38541;48.130;8.378;2023-04-08T12:17:33;93077.78;;;11.47;56.95
52249;BME280;38541;48.130;8.378;2023-04-08T12:20:00;93083.09;;;11.83;54.17
52249;BME280;38541;48.130;8.378;2023-04-08T12:22:26;93079.91;;;11.55;53.99
52249;BME280;38541;48.130;8.378;2023-04-08T12:24:53;93084.03;;;11.35;53.96
52249;BME280;38541;48.130;8.378;2023-04-08T12:27:19;93089.25;;;11.20;53.96
52249;BME280;38541;48.130;8.378;2023-04-08T12:29:46;93090.75;;;11.05;55.11
52249;BME280;38541;48.130;8.378;2023-04-08T12:32:15;93082.31;;;10.98;56.90
52249;BME280;38541;48.130;8.378;2023-04-08T12:34:42;93083.97;;;11.15;56.04
52249;BME280;38541;48.130;8.378;2023-04-08T12:37:08;93082.50;;;10.81;55.60
52249;BME280;38541;48.130;8.378;2023-04-08T12:39:35;93090.13;;;10.82;57.04
52249;BME280;38541;48.130;8.378;2023-04-08T12:42:02;93081.03;;;10.58;56.30
52249;BME280;38541;48.130;8.378;2023-04-08T12:44:29;93082.03;;;10.51;56.54
52249;BME280;38541;48.130;8.378;2023-04-08T12:46:56;93083.91;;;10.23;57.35
52249;BME280;38541;48.130;8.378;2023-04-08T12:49:25;93080.19;;;10.47;57.90
52249;BME280;38541;48.130;8.378;2023-04-08T12:51:53;93087.38;;;10.67;56.95
52249;BME280;38541;48.130;8.378;2023-04-08T12:54:20;93079.00;;;10.70;56.95
52249;BME280;38541;48.130;8.378;2023-04-08T12:56:47;93083.38;;;10.54;56.80
52249;BME280;38541;48.130;8.378;2023-04-08T12:59:14;93079.41;;;10.51;56.78
52249;BME280;38541;48.130;8.378;2023-04-08T13:01:40;93078.63;;;10.51;57.40
52249;BME280;38541;48.130;8.378;2023-04-08T13:04:07;93080.13;;;10.84;58.31
52249;BME280;38541;48.130;8.378;2023-04-08T13:06:33;93078.63;;;10.99;57.26
52249;BME280;38541;48.130;8.378;2023-04-08T13:09:00;93085.50;;;11.05;55.29
52249;BME280;38541;48.130;8.378;2023-04-08T13:11:26;93079.88;;;10.86;55.42
52249;BME280;38541;48.130;8.378;2023-04-08T13:13:53;93082.94;;;10.67;55.87
52249;BME280;38541;48.130;8.378;2023-04-08T13:16:19;93078.41;;;10.58;53.78
52249;BME280;38541;48.130;8.378;2023-04-08T13:18:47;93081.81;;;10.25;54.60
52249;BME280;38541;48.130;8.378;2023-04-08T13:21:13;93072.03;;;10.16;54.70
52249;BME280;38541;48.130;8.378;2023-04-08T13:23:40;93080.09;;;10.04;56.20
52249;BME280;38541;48.130;8.378;2023-04-08T13:26:06;93082.50;;;9.78;56.38
52249;BME280;38541;48.130;8.378;2023-04-08T13:28:33;93085.88;;;9.51;57.24
52249;BME280;38541;48.130;8.378;2023-04-08T13:31:09;93082.34;;;9.40;58.46
52249;BME280;38541;48.130;8.378;2023-04-08T13:33:35;93093.03;;;9.33;60.39